Date,TemperatureHighF,TemperatureAvgF,TemperatureLowF,DewpointHighF,DewpointAvgF,DewpointLowF,HumidityHigh,HumidityAvg,HumidityLow,PressureMaxIn,PressureMinIn,WindSpeedMaxMPH,WindSpeedAvgMPH,GustSpeedMaxMPH,PrecipitationSumIn
2013-4-10,87.8,72.0,51.3,50.7,45.4,-99.9,80,43,27,29.92,29.79,8,-14,0,0.00
2013-4-11,76.6,59.5,48.2,51.3,44.8,38.4,82,60,28,29.90,29.69,8,2,0,0.00
2013-4-12,76.5,57.0,39.7,53.4,45.6,38.1,96,69,37,29.88,29.72,7,2,0,0.00
2013-4-13,70.7,56.0,42.3,51.4,43.1,38.9,93,65,36,29.91,29.78,11,2,0,0.00
2013-4-14,73.8,54.6,37.9,47.2,39.9,34.2,94,63,26,29.97,29.82,9,2,0,0.00
2013-4-15,61.3,50.7,41.7,48.3,38.7,33.9,91,66,39,29.97,29.86,14,4,0,0.00
2013-4-16,70.2,51.3,33.4,36.9,33.1,29.0,92,56,23,30.13,29.97,8,2,0,0.00
2013-4-17,71.8,57.2,42.6,35.9,32.5,25.0,73,43,18,30.27,30.13,11,3,0,0.00
2013-4-18,79.9,58.1,36.7,43.1,36.6,32.2,87,52,21,30.24,30.10,7,1,0,0.00
2013-4-19,84.7,61.5,40.6,55.0,45.4,37.5,92,60,26,30.18,29.90,8,2,0,0.00
2013-4-20,84.6,62.6,43.3,49.9,44.5,40.3,93,59,21,30.02,29.78,7,1,0,0.00
2013-4-21,88.3,65.2,44.2,54.5,44.3,37.7,97,57,17,29.95,29.73,7,1,0,0.00
2013-4-22,91.2,68.0,47.5,53.4,45.4,38.1,84,52,16,29.88,29.75,9,2,0,0.00
2013-4-23,85.3,63.5,44.6,50.1,40.7,27.6,89,53,14,29.88,29.71,9,2,0,0.00
2013-4-24,75.6,57.3,42.4,53.3,48.1,40.6,97,74,45,29.86,29.72,10,2,0,0.00
2013-4-25,74.8,59.2,51.1,53.8,49.3,47.0,93,71,48,30.05,29.85,10,4,0,0.00
2013-4-26,71.6,57.1,45.9,53.0,48.7,44.0,95,75,52,30.17,30.04,8,2,0,0.00
2013-4-27,74.8,58.7,46.4,54.9,50.3,43.9,96,76,50,30.16,29.93,8,2,0,0.00
2013-4-28,87.1,64.2,44.6,59.1,52.0,43.3,99,70,33,29.98,29.70,10,1,0,0.00
2013-4-29,93.0,70.4,51.6,57.5,50.4,46.1,91,56,21,29.82,29.59,6,1,0,0.00
2013-4-30,84.9,65.5,47.5,53.5,46.3,38.4,95,58,20,29.77,29.64,7,2,0,0.00
2013-5-1,88.3,66.8,44.6,48.3,36.4,23.9,76,40,13,29.98,29.74,8,2,0,0.00
2013-5-2,94.8,70.1,46.4,45.7,39.7,27.0,79,42,14,30.09,29.92,8,1,0,0.00
2013-5-3,92.8,69.6,47.5,49.5,41.2,32.1,70,42,13,29.98,29.72,8,1,0,0.00
2013-5-4,91.8,67.9,49.1,54.6,45.4,35.7,77,51,18,29.74,29.48,9,2,0,0.00
2013-5-5,70.7,61.2,55.2,50.5,47.9,45.3,74,62,47,29.76,29.55,15,6,0,0.00
2013-5-6,73.4,61.2,49.5,55.1,49.5,46.8,91,67,45,29.93,29.76,8,2,0,0.00
2013-5-7,75.7,62.7,52.5,54.0,49.5,45.6,83,64,42,30.01,29.91,11,2,0,0.00
2013-5-8,73.8,58.0,49.1,53.1,49.3,45.7,92,74,46,30.12,30.01,9,2,0,0.00
2013-5-9,73.4,58.7,47.7,52.5,49.1,45.8,93,72,48,30.14,30.00,10,2,0,0.00
2013-5-10,75.6,60.0,48.9,56.7,51.3,46.4,92,75,52,30.15,30.06,7,2,0,0.00
2013-5-11,84.7,65.8,54.3,60.8,55.2,52.1,94,72,42,30.12,29.98,7,2,0,0.00
2013-5-12,84.9,66.1,47.8,62.3,53.3,45.7,99,68,31,30.11,29.97,10,2,0,0.00
2013-5-13,82.6,63.2,45.1,59.1,51.6,43.5,97,69,39,30.06,29.90,8,2,0,0.00
2013-5-14,80.4,62.3,51.3,54.6,48.8,43.5,86,64,34,29.97,29.85,10,4,0,0.00
2013-5-15,75.0,59.5,48.6,49.8,45.2,41.4,81,62,32,30.03,29.93,7,2,0,0.00
2013-5-16,75.7,60.9,52.3,55.8,50.4,46.9,87,71,38,30.00,29.87,9,2,0,0.00
2013-5-17,76.1,58.7,45.0,48.6,44.9,39.2,96,64,28,30.04,29.93,10,2,0,0.00
2013-5-18,79.5,60.7,41.7,52.3,46.3,39.7,96,64,27,30.11,29.96,10,2,0,0.00
2013-5-19,85.8,65.9,44.6,47.5,43.7,39.3,89,50,21,30.09,29.82,9,2,0,0.00
2013-5-20,92.1,68.8,45.7,53.3,42.2,32.6,87,48,13,29.96,29.79,7,2,0,0.00
2013-5-21,75.7,60.1,49.1,50.9,44.0,32.2,90,59,23,29.95,29.85,16,3,0,0.00
2013-5-22,70.2,55.2,44.8,40.9,35.7,22.7,79,51,19,29.99,29.85,10,3,0,0.00
2013-5-23,71.1,56.6,46.2,44.9,41.0,38.3,81,58,34,29.95,29.86,9,3,0,0.00
2013-5-24,73.9,55.7,38.8,48.7,41.6,35.3,90,62,32,29.96,29.86,12,3,0,0.00
2013-5-25,68.5,57.1,46.2,47.6,45.0,42.1,87,66,41,30.00,29.91,12,3,0,0.00
2013-5-26,76.3,62.2,52.0,52.6,50.6,47.3,89,68,41,30.07,29.93,14,2,0,0.00
2013-5-27,69.1,59.4,48.2,56.0,51.7,46.5,96,77,57,30.06,29.93,8,3,0,0.00
2013-5-28,76.3,63.6,54.1,57.6,53.2,46.7,94,71,43,29.94,29.87,10,3,0,0.00
2013-5-29,76.1,63.0,51.6,56.8,48.8,41.8,78,62,36,29.92,29.80,8,2,0,0.00
2013-5-30,81.9,60.9,44.1,48.5,42.1,30.9,90,56,16,29.96,29.82,12,2,0,0.00
2013-5-31,93.0,67.7,43.0,52.4,45.5,39.4,92,53,17,29.98,29.85,7,2,0,0.00
2013-6-1,97.2,72.4,48.7,56.3,51.2,44.4,94,55,17,29.88,29.71,9,2,0,0.00
2013-6-2,82.9,65.9,53.2,57.0,53.6,50.6,94,68,38,29.73,29.61,9,2,0,0.00
2013-6-3,78.3,62.8,47.1,56.6,52.1,45.7,97,71,45,29.75,29.65,9,2,0,0.00
2013-6-4,78.3,63.5,55.2,57.1,53.5,51.0,90,72,46,29.90,29.75,9,4,0,0.00
2013-6-5,75.7,62.7,55.2,55.9,52.6,50.0,85,71,49,29.94,29.85,10,3,0,0.00
2013-6-6,74.3,60.5,55.0,56.6,53.2,50.3,89,78,54,29.90,29.84,8,2,0,0.00
2013-6-7,90.3,78.6,64.0,64.1,60.4,57.0,80,56,40,29.73,29.66,7,2,0,0.00
2013-6-8,87.4,70.6,54.7,64.2,58.3,52.6,94,68,43,29.74,29.63,7,2,0,0.00
2013-6-9,79.5,65.3,55.8,58.6,55.6,52.0,95,73,48,29.80,29.72,17,5,0,0.00
2013-6-10,75.0,63.6,55.9,54.5,51.8,49.0,85,67,48,29.88,29.77,16,5,0,0.00
2013-6-11,77.4,64.1,55.4,57.7,54.1,50.3,86,71,50,29.92,29.83,9,2,0,0.00
2013-6-12,84.0,63.8,45.7,54.3,47.5,37.2,95,61,25,29.93,29.83,15,2,0,0.00
2013-6-13,84.6,64.0,43.2,52.1,44.9,36.4,89,55,20,30.04,29.87,10,2,0,0.00
2013-6-14,90.3,68.3,46.6,51.8,44.5,37.0,88,51,16,29.90,29.68,11,2,0,0.00
2013-6-15,79.7,61.8,45.9,54.4,49.3,42.6,96,67,36,29.91,29.74,7,2,0,0.00
2013-6-16,84.0,64.5,45.0,55.4,49.8,43.7,95,64,33,30.02,29.90,11,2,0,0.00
2013-6-17,78.1,62.7,47.8,56.5,51.7,44.7,90,69,46,30.05,29.93,10,2,0,0.00
2013-6-18,71.2,60.3,49.3,51.4,49.4,47.4,95,70,44,30.01,29.95,9,3,0,0.00
2013-6-19,79.3,63.5,52.2,49.3,46.0,42.8,80,55,32,30.01,29.95,8,3,0,0.00
2013-6-20,79.0,59.9,44.4,53.4,45.0,41.0,90,62,27,29.97,29.84,9,2,0,0.00
2013-6-21,86.9,65.1,46.2,55.5,47.3,38.0,88,57,20,29.93,29.78,9,2,0,0.00
2013-6-22,91.9,68.8,46.9,55.9,49.1,40.2,91,56,21,29.87,29.70,7,2,0,0.00
2013-6-23,70.5,63.7,55.2,60.5,56.7,50.8,90,78,65,29.82,29.71,14,3,0,0.00
2013-6-24,69.8,63.3,59.7,61.7,59.8,57.5,96,89,72,29.84,29.70,8,2,0,0.03
2013-6-25,79.5,69.1,62.1,65.3,61.6,57.7,92,78,62,29.92,29.81,9,3,0,0.01
2013-6-26,89.1,72.9,63.0,66.6,62.2,57.0,92,71,44,29.98,29.82,11,2,0,0.00
2013-6-27,93.0,72.5,57.6,63.8,58.3,54.0,96,66,28,30.01,29.85,9,2,0,0.00
2013-6-28,103.1,78.4,56.1,66.3,58.8,52.3,88,56,22,29.93,29.73,9,2,0,0.00
2013-6-29,104.2,79.2,57.2,64.6,56.8,50.0,83,52,18,29.82,29.60,8,2,0,0.00
2013-6-30,94.6,74.8,57.0,64.3,57.7,51.6,87,59,30,29.77,29.59,8,2,0,0.00
2013-7-1,95.2,74.8,57.6,64.7,59.5,53.8,91,63,35,29.79,29.68,6,2,0,0.00
2013-7-2,92.5,74.6,63.0,66.1,61.0,57.5,87,65,39,29.87,29.75,8,2,0,0.00
2013-7-3,93.9,74.0,61.3,66.2,61.2,57.8,91,67,39,29.86,29.62,7,2,0,0.00
2013-7-4,94.6,77.3,63.5,67.0,60.1,52.7,83,59,28,29.70,29.50,8,2,0,0.00
2013-7-5,77.2,64.9,56.3,56.5,52.2,47.7,81,65,46,29.77,29.60,12,5,0,0.00
2013-7-6,82.6,62.3,52.9,56.5,52.2,49.4,89,72,41,29.77,29.67,7,3,0,0.00
2013-7-7,79.7,66.3,56.8,58.8,55.1,51.0,87,69,49,29.80,29.72,10,3,0,0.00
2013-7-8,80.8,66.2,57.6,59.6,56.3,53.6,89,72,47,29.88,29.77,8,2,0,0.00
2013-7-9,88.5,70.7,55.2,63.4,58.3,52.3,93,68,39,29.95,29.87,7,2,0,0.00
2013-7-10,82.8,66.2,53.6,60.4,56.1,50.7,93,72,43,29.94,29.76,8,2,0,0.00
2013-7-11,80.2,64.6,57.9,58.2,54.5,51.6,88,72,42,29.89,29.83,8,3,0,0.00
2013-7-12,80.4,65.1,56.5,58.8,55.2,51.9,89,72,47,29.89,29.75,9,3,0,0.00
2013-7-13,84.2,66.2,48.2,60.0,54.4,46.0,95,70,39,29.91,29.75,8,2,0,0.00
2013-7-14,77.9,64.1,50.7,58.6,55.0,48.3,94,74,50,29.94,29.74,9,2,0,0.00
2013-7-15,77.5,63.2,55.9,57.9,53.4,49.8,88,72,45,29.86,29.70,10,4,0,0.00
2013-7-16,78.3,63.8,55.6,56.8,53.4,50.9,87,71,46,29.95,29.78,11,4,0,0.00
2013-7-17,78.1,64.8,54.9,59.1,54.9,51.7,89,72,52,30.05,29.90,7,2,0,0.00
2013-7-18,82.2,66.8,54.7,60.5,56.1,51.8,91,71,45,30.00,29.80,8,2,0,0.00
2013-7-19,83.7,66.7,55.9,60.6,56.5,53.4,92,72,45,29.89,29.68,8,2,0,0.00
2013-7-20,82.9,65.5,55.8,61.1,56.4,53.2,91,75,46,29.78,29.58,7,2,0,0.00
2013-7-21,80.1,66.2,57.0,60.4,56.9,53.5,90,74,51,29.76,29.62,10,2,0,0.00
2013-7-22,77.5,66.3,58.5,62.0,58.8,55.6,92,78,59,29.88,29.76,9,2,0,0.00
2013-7-23,78.8,67.5,60.8,62.5,59.2,57.2,90,76,54,29.94,29.87,8,2,0,0.00
2013-7-24,84.9,69.5,56.8,63.1,58.8,54.5,94,71,41,29.93,29.77,9,2,0,0.00
2013-7-25,81.1,66.5,53.8,61.7,57.4,51.8,95,75,49,29.94,29.83,7,2,0,0.00
2013-7-26,79.5,67.1,59.0,61.6,58.3,56.0,91,75,54,30.03,29.86,8,2,0,0.00
2013-7-27,77.9,66.2,59.5,60.9,58.3,55.9,91,77,56,29.94,29.70,10,3,0,0.00
2013-7-28,80.2,66.4,58.5,60.0,56.8,52.8,91,73,49,29.79,29.64,8,3,0,0.00
2013-7-29,82.2,64.7,52.9,57.8,53.5,49.4,89,69,42,29.96,29.74,11,4,0,0.00
2013-7-30,78.6,65.4,57.9,59.5,55.3,52.2,87,71,52,30.04,29.96,8,2,0,0.00
2013-7-31,83.5,66.6,55.9,58.2,53.7,47.7,88,66,35,30.04,29.88,9,3,0,0.00
2013-8-1,82.0,64.6,48.9,54.0,50.2,45.7,90,63,35,30.03,29.85,11,2,0,0.00
2013-8-2,84.4,63.7,46.4,58.5,51.9,44.9,95,69,35,29.94,29.76,9,2,0,0.00
2013-8-3,79.7,64.6,54.1,59.2,54.9,50.0,89,72,49,29.92,29.75,9,2,0,0.00
2013-8-4,78.1,64.8,57.0,58.6,55.4,51.9,89,73,47,29.94,29.79,8,2,0,0.00
2013-8-5,77.7,64.2,57.0,58.9,55.4,52.5,88,75,51,29.95,29.81,9,2,0,0.00
2013-8-6,79.3,64.5,56.7,59.0,54.7,51.6,88,72,46,29.97,29.87,8,3,0,0.00
2013-8-7,79.9,65.5,57.6,58.3,55.3,52.8,89,71,45,30.04,29.90,9,4,0,0.00
2013-8-8,75.9,63.6,53.8,59.5,55.3,50.6,91,76,55,29.95,29.82,11,3,0,0.00
2013-8-9,79.5,63.0,48.4,59.9,54.1,46.8,95,75,51,29.92,29.81,7,2,0,0.00
2013-8-10,82.2,66.3,58.5,61.9,56.9,54.2,87,73,48,29.99,29.84,11,2,0,0.00
2013-8-11,79.0,66.4,56.1,61.0,57.5,53.2,92,74,54,29.96,29.80,7,2,0,0.00
2013-8-12,89.4,67.6,57.9,61.9,57.6,50.0,94,74,26,29.94,29.79,8,2,0,0.00
2013-8-13,90.0,69.8,54.9,61.4,56.7,51.4,99,68,29,29.93,29.76,8,2,0,0.00
2013-8-14,85.1,66.6,49.6,60.9,55.5,47.7,94,71,35,29.94,29.85,10,2,0,0.00
2013-8-15,88.5,69.8,53.4,68.1,61.2,51.4,97,77,48,29.92,29.78,9,2,0,0.00
2013-8-16,90.5,71.9,61.3,66.5,60.4,48.1,97,72,28,29.94,29.83,8,2,0,0.00
2013-8-17,86.2,67.2,54.1,62.4,57.7,50.8,92,74,43,29.94,29.75,6,2,0,0.00
2013-8-18,94.5,73.5,59.2,65.3,61.0,57.2,96,69,34,29.82,29.58,8,2,0,0.00
2013-8-19,87.1,72.5,61.2,65.8,61.0,55.8,94,69,44,29.83,29.66,8,2,0,0.06
2013-8-20,83.5,69.0,60.1,63.9,59.8,54.7,95,75,47,29.83,29.75,7,2,0,0.00
2013-8-21,77.5,66.2,58.1,60.5,57.3,53.3,91,75,54,29.88,29.78,8,2,0,0.00
2013-8-22,78.6,65.2,55.0,59.7,55.8,52.1,91,73,50,29.93,29.83,9,3,0,0.00
2013-8-23,80.6,65.7,55.4,60.4,55.1,51.4,90,70,46,29.89,29.75,8,2,0,0.00
2013-8-24,84.6,66.4,50.0,61.4,55.9,47.7,93,72,43,29.85,29.78,9,2,0,0.00
2013-8-25,84.0,68.8,59.7,65.4,60.5,56.3,92,76,50,29.87,29.82,11,3,0,0.00
2013-8-26,83.1,67.9,57.6,61.1,56.3,49.4,90,69,42,29.95,29.84,8,2,0,0.00
2013-8-27,86.5,65.8,48.2,61.5,53.8,45.1,93,69,34,29.86,29.75,12,2,0,0.00
2013-8-28,85.3,67.2,51.3,65.9,59.2,49.7,96,78,48,29.88,29.80,8,2,0,0.00
2013-8-29,81.0,68.3,63.5,65.8,62.4,60.2,93,82,58,29.98,29.87,6,2,0,0.00
2013-8-31,84.2,75.5,64.6,62.7,58.8,55.3,85,57,41,29.93,29.81,8,3,0,0.00
2013-9-1,82.2,69.6,59.5,62.0,59.1,56.0,93,72,44,29.89,29.79,7,3,0,0.00
2013-9-2,80.4,70.0,61.9,65.7,61.8,58.3,89,76,55,29.89,29.79,8,2,0,0.00
2013-9-3,83.7,66.9,52.7,58.5,54.7,50.7,96,69,32,29.94,29.86,7,2,0,0.00
2013-9-4,67.5,55.4,51.6,58.1,52.8,50.2,96,91,72,29.98,29.91,4,0,0,0.15
2013-9-5,81.3,69.6,54.0,58.7,54.4,51.2,99,61,40,29.97,29.90,17,5,0,0.02
2013-9-6,92.8,70.2,48.7,58.7,51.8,47.4,97,59,27,29.93,29.75,9,1,0,0.00
2013-9-7,97.0,74.9,56.8,60.1,52.1,47.1,82,50,20,29.82,29.72,9,2,0,0.00
2013-9-8,89.4,69.3,53.6,63.3,58.3,51.9,97,72,40,29.81,29.68,7,1,0,0.00
2013-9-9,90.7,70.2,53.4,64.7,59.6,52.8,99,74,40,29.75,29.63,6,1,0,0.00
2013-9-10,85.5,67.9,56.5,63.6,59.4,55.8,99,77,42,29.83,29.67,10,2,0,0.00
2013-9-11,80.8,66.6,56.1,61.5,57.4,53.4,92,74,51,29.92,29.81,9,4,0,0.00
2013-9-12,79.0,67.8,58.6,62.8,59.6,56.9,94,77,56,29.92,29.82,9,3,0,0.00
2013-9-13,82.2,69.8,57.2,63.1,57.8,52.5,95,67,45,29.84,29.70,7,2,0,0.00
2013-9-14,77.5,63.3,52.0,59.5,54.9,50.6,96,77,52,29.77,29.68,9,2,0,0.00
2013-9-15,83.5,63.6,48.6,60.5,55.0,48.3,99,77,45,29.81,29.72,11,2,0,0.00
2013-9-16,84.4,64.2,52.7,63.0,57.4,52.4,99,82,41,29.83,29.74,12,2,0,0.00
2013-9-17,75.2,67.2,53.8,57.7,53.1,49.7,92,63,43,29.84,29.78,18,5,0,0.00
2013-9-18,86.4,65.4,49.5,54.6,48.4,38.8,96,62,19,29.86,29.75,9,2,0,0.00
2013-9-19,90.9,67.2,46.9,57.3,48.8,42.6,96,59,20,29.79,29.67,9,2,0,0.00
2013-9-20,76.6,63.1,47.3,60.9,54.5,43.9,89,74,52,29.81,29.71,9,3,0,0.00
2013-9-21,70.0,62.3,53.8,61.9,57.7,52.7,97,85,68,29.84,29.74,9,4,0,0.78
2013-9-22,76.8,61.0,48.7,57.4,52.7,48.4,99,77,44,29.95,29.83,12,2,0,0.00
2013-9-23,84.0,65.6,49.6,61.2,54.2,48.5,97,71,36,29.96,29.86,9,2,0,0.00
2013-9-24,78.1,64.5,55.2,56.7,53.0,48.8,95,69,42,29.95,29.87,17,5,0,0.00
2013-9-25,70.2,61.4,54.0,50.6,47.2,41.9,79,61,39,29.88,29.77,18,7,0,0.00
2013-9-26,77.0,59.2,43.9,45.2,41.3,36.1,89,57,24,29.91,29.76,12,3,0,0.00
2013-9-27,80.2,61.0,44.6,46.3,39.2,32.1,80,51,18,30.05,29.91,8,1,0,0.00
2013-9-28,83.5,63.3,45.5,55.1,43.7,36.4,87,54,23,30.03,29.92,11,2,0,0.00
2013-9-29,78.4,63.9,50.7,60.5,55.8,49.6,99,77,52,30.05,29.98,8,2,0,0.00
2013-9-30,79.7,66.8,56.8,63.7,59.3,48.6,98,78,55,30.02,29.89,6,2,0,0.00
2013-10-1,74.8,61.6,50.9,52.5,48.9,44.8,87,65,42,29.95,29.85,9,2,0,0.00
2013-10-2,79.9,60.1,46.6,56.2,47.1,39.5,95,66,28,29.95,29.85,7,2,0,0.00
2013-10-3,74.5,59.7,44.8,44.5,38.7,34.4,80,50,24,30.02,29.88,14,3,0,0.00
2013-10-4,82.2,67.5,55.2,38.2,32.9,29.9,47,29,17,30.03,29.90,10,3,0,0.00
2013-10-5,87.1,64.9,47.3,39.8,33.6,30.0,54,35,15,30.14,30.03,8,1,0,0.00
2013-10-6,85.6,64.7,46.8,46.5,36.0,28.5,58,38,15,30.06,29.93,8,1,0,0.00
2013-10-7,84.6,65.1,50.2,48.0,35.3,28.1,54,36,14,29.94,29.80,9,2,0,0.00
2013-10-8,78.3,58.7,45.0,50.9,44.0,35.9,90,62,32,29.83,29.66,7,2,0,0.00
2013-10-9,70.2,56.6,45.3,49.2,44.3,39.6,96,67,39,29.69,29.56,6,2,0,0.00
2013-10-10,75.0,57.3,44.6,51.0,45.3,38.8,93,67,40,29.94,29.68,6,1,0,0.00
2013-10-11,68.4,54.7,44.6,54.9,49.2,44.1,99,83,59,30.02,29.91,8,1,0,0.00
2013-10-12,72.9,56.3,43.3,55.4,47.9,42.3,99,76,39,29.95,29.83,7,1,0,0.00
2013-10-13,73.9,57.3,43.3,53.4,44.9,41.7,99,68,34,30.01,29.86,8,1,0,0.00
2013-10-14,79.0,59.3,42.8,42.4,39.5,36.3,84,53,24,30.07,29.93,6,2,0,0.00
2013-10-15,80.8,60.9,43.7,42.9,36.9,34.5,75,46,20,29.99,29.88,8,1,0,0.00
2013-10-16,82.4,62.8,45.5,43.9,36.2,32.8,66,40,20,30.03,29.93,6,1,0,0.00
2013-10-17,81.7,61.9,46.4,46.0,36.7,31.7,64,42,19,30.02,29.89,8,2,0,0.00
2013-10-18,79.2,59.2,43.3,55.0,44.2,31.8,90,61,30,29.99,29.91,6,1,0,0.00
2013-10-19,82.2,60.3,44.8,56.7,48.3,42.4,99,70,34,30.02,29.91,6,1,0,0.00
2013-10-20,76.1,56.6,43.7,59.1,50.1,42.8,99,81,53,29.96,29.84,5,1,0,0.00
2013-10-21,72.0,55.9,45.0,56.4,50.7,44.7,99,85,58,29.95,29.84,7,1,0,0.00
2013-10-22,75.0,56.3,46.0,57.5,51.3,45.7,99,85,51,29.97,29.85,7,1,0,0.00
2013-10-23,69.6,55.1,46.8,57.3,51.7,46.5,99,89,64,29.92,29.83,5,1,0,0.00
2013-10-24,64.6,53.6,45.0,53.0,50.1,44.7,99,89,66,30.05,29.91,5,2,0,0.00
2013-10-25,70.3,53.7,41.0,55.3,48.4,40.7,99,84,55,30.11,30.02,6,1,0,0.00
2013-10-26,78.1,57.2,43.2,56.0,49.1,42.9,99,79,39,30.09,29.94,6,1,0,0.00
2013-10-27,63.3,53.7,43.2,53.0,48.6,42.9,99,84,62,29.97,29.63,32,5,0,0.00
2013-10-28,63.9,55.8,51.4,51.3,47.7,45.2,95,75,52,29.79,29.62,22,5,0,0.00
2013-10-29,66.9,55.1,43.2,52.0,48.2,41.9,97,79,52,29.99,29.79,7,2,0,0.00
2013-10-30,67.5,51.8,40.1,51.2,45.0,39.8,99,80,46,30.09,29.99,9,1,0,0.00
2013-10-31,73.6,54.6,40.8,49.5,43.9,39.5,96,72,38,30.12,30.00,7,1,0,0.00
2013-11-1,75.9,57.2,43.0,48.0,44.6,40.3,92,67,36,30.08,29.94,6,1,0,0.00
2013-11-2,71.6,55.5,44.2,55.4,47.7,40.5,94,76,56,29.96,29.85,9,1,0,0.00
2013-11-3,64.4,51.2,40.3,45.2,37.4,28.3,99,66,26,29.99,29.86,8,2,0,0.00
2013-11-4,67.5,51.3,36.9,41.0,34.3,30.0,97,58,26,30.00,29.85,12,3,0,0.00
2013-11-5,73.0,56.2,42.1,36.6,34.7,32.3,70,48,25,30.16,30.02,6,1,0,0.00
2013-11-6,73.8,57.3,43.5,44.8,38.7,35.3,76,53,27,30.20,30.10,5,1,0,0.00
2013-11-7,75.2,58.3,47.3,48.2,42.2,37.4,80,57,28,30.11,30.01,7,1,0,0.00
2013-11-8,74.1,60.8,46.4,56.4,49.8,44.5,99,69,45,30.03,29.90,8,2,0,0.00
2013-11-9,71.8,54.0,41.4,54.2,47.3,41.1,99,81,52,29.98,29.90,5,1,0,0.00
2013-11-10,66.4,52.1,42.1,54.3,48.8,41.8,99,90,65,30.06,29.96,8,1,0,0.00
2013-11-11,69.8,56.7,48.2,55.3,51.8,47.7,99,85,57,30.10,30.01,4,1,0,0.00
2013-11-12,71.2,59.2,48.0,55.4,50.2,43.1,88,74,49,30.20,30.09,6,1,0,0.00
2013-11-13,77.0,57.4,45.7,56.7,50.1,43.8,99,80,32,30.19,30.04,6,1,0,0.00
2013-11-14,68.2,54.7,46.4,56.8,51.2,43.8,99,89,67,30.06,29.82,6,1,0,0.00
2013-11-15,67.6,52.0,40.5,47.3,42.3,37.1,97,73,35,29.82,29.66,8,2,0,0.00
2013-11-16,65.1,50.7,40.3,50.7,45.3,37.3,99,84,52,29.87,29.71,8,2,0,0.00
2013-11-17,64.4,50.4,41.2,51.8,46.2,40.9,99,87,63,30.02,29.86,7,1,0,0.00
2013-11-18,62.4,50.4,40.8,50.7,46.0,40.5,99,86,60,30.08,30.01,10,2,0,0.00
2013-11-19,66.7,55.6,45.9,57.5,52.5,45.1,99,90,65,30.04,29.87,5,1,0,0.46
2013-11-20,65.3,55.6,46.4,61.0,54.6,46.1,99,97,82,29.87,29.77,9,1,0,0.49
2013-11-21,61.5,54.3,49.5,51.9,41.5,26.4,99,67,33,29.93,29.82,11,3,0,0.01
2013-11-22,68.7,53.7,37.2,34.9,27.3,17.6,78,41,16,29.98,29.84,10,2,0,0.00
2013-11-23,66.7,51.0,39.0,45.7,37.6,33.1,95,64,31,30.05,29.90,6,1,0,0.00
2013-11-24,64.9,48.6,37.0,48.1,42.2,36.6,99,81,50,30.19,30.04,6,1,0,0.00
2013-11-25,64.8,49.2,37.4,47.7,42.7,37.1,99,81,50,30.26,30.18,5,1,0,0.00
2013-11-26,64.4,50.8,40.5,48.1,44.5,40.2,99,81,53,30.20,29.97,5,0,0,0.00
2013-11-27,64.8,51.4,40.1,50.7,45.7,39.8,99,83,57,29.96,29.77,5,1,0,0.00
2013-11-28,67.8,53.4,43.7,49.3,45.4,42.2,99,77,45,30.02,29.80,6,1,0,0.00
2013-11-29,70.5,52.6,41.7,50.7,44.4,39.3,95,76,46,30.17,30.01,7,1,0,0.00
2013-11-30,67.8,51.3,39.6,54.3,45.2,38.5,99,82,49,30.21,30.12,6,1,0,0.00
2013-12-1,69.3,52.7,40.3,53.2,46.1,40.0,99,81,51,30.28,30.15,6,1,0,0.00
2013-12-2,66.4,50.8,40.6,55.6,47.8,40.3,99,90,67,30.17,29.92,9,1,0,0.00
2013-12-3,56.8,48.9,35.2,53.8,41.6,32.6,99,77,53,29.91,29.79,14,5,0,0.00
2013-12-4,53.6,39.2,28.0,32.6,27.2,23.0,90,66,32,30.02,29.87,4,1,0,0.00
2013-12-5,51.8,36.4,23.0,29.5,22.1,15.9,90,61,26,30.11,30.01,5,1,0,0.00
2013-12-6,55.9,43.8,32.2,49.2,37.6,29.3,97,81,44,30.13,29.85,17,3,0,0.58
2013-12-7,50.7,42.4,29.8,48.9,34.4,27.4,99,76,43,30.18,29.85,18,5,0,0.19
2013-12-8,46.2,34.4,25.7,30.3,26.8,22.5,99,77,46,30.28,30.15,6,1,0,0.00
2013-12-9,51.4,35.7,24.4,26.2,21.9,18.0,87,61,30,30.36,30.25,5,1,0,0.00
2013-12-10,53.8,37.9,25.3,33.1,28.1,22.9,92,70,41,30.34,30.13,4,2,0,0.00
2013-12-11,57.4,40.9,29.3,33.0,29.9,26.5,89,68,38,30.19,30.11,5,1,0,0.00
2013-12-12,60.1,42.7,30.2,39.0,32.9,27.8,94,72,37,30.21,30.09,5,1,0,0.00
2013-12-13,60.3,43.9,31.6,45.0,36.8,31.4,99,78,48,30.27,30.16,5,1,0,0.00
2013-12-14,62.4,45.3,33.8,45.6,36.3,31.8,98,74,41,30.34,30.24,4,1,0,0.00
2013-12-15,62.4,46.3,34.0,43.2,37.3,32.2,97,74,44,30.31,30.17,4,1,0,0.00
2013-12-16,69.6,51.7,41.5,40.0,36.5,33.5,75,59,30,30.18,30.05,4,1,0,0.00
2013-12-17,67.3,50.9,39.2,44.4,39.6,35.0,92,67,39,30.11,29.96,4,1,0,0.00
2013-12-18,63.7,49.6,40.5,50.2,43.8,36.9,99,81,57,29.96,29.72,6,1,0,0.00
2013-12-19,58.6,48.9,39.0,45.3,38.4,25.1,99,69,43,29.87,29.66,11,4,0,0.00
2013-12-20,61.7,45.4,31.8,30.3,21.3,9.7,72,45,13,29.96,29.86,4,1,0,0.00
2013-12-21,62.6,48.2,37.9,51.6,42.3,27.5,99,81,56,30.01,29.90,9,2,0,0.00
2013-12-22,68.7,50.9,38.1,50.6,40.5,37.8,99,73,34,30.23,30.01,5,1,0,0.00
2013-12-23,62.8,48.8,38.3,48.1,41.7,37.5,98,78,52,30.32,30.22,6,1,0,0.00
2013-12-24,71.4,51.7,38.7,47.7,40.7,36.3,96,71,37,30.27,30.13,4,1,0,0.00
2013-12-25,67.1,49.8,38.1,44.8,39.8,35.1,89,71,44,30.23,30.12,3,1,0,0.00
2013-12-26,69.1,49.8,37.8,45.7,39.7,35.5,94,72,34,30.19,30.09,6,1,0,0.00
2013-12-27,63.3,47.0,36.3,48.4,40.9,35.2,98,81,50,30.16,30.04,4,1,0,0.00
2013-12-28,66.4,47.6,34.9,45.2,34.8,30.4,99,67,29,30.09,29.96,7,1,0,0.00
2013-12-29,69.3,49.9,38.5,35.1,27.6,21.3,66,47,18,30.11,30.02,6,1,0,0.00
2013-12-30,65.1,47.1,34.9,39.9,34.2,28.4,84,64,36,30.20,30.10,6,1,0,0.00
2013-12-31,61.3,45.1,34.0,47.8,39.4,31.9,99,82,54,30.21,30.08,6,1,0,0.00
2014-1-1,63.9,47.6,34.5,48.0,39.3,31.9,96,75,55,30.15,30.06,4,1,0,0.00
2014-1-2,68.5,50.5,37.9,40.0,36.7,33.4,85,62,33,30.11,29.98,5,1,0,0.00